チューク諸島 の空港の天気 - METARとTAF

チューク国際空港 ( PTKK / TKK ) - ミクロネシア連邦 チューク諸島
飛行場実況気象(Metar)
観測時間10/16 15:52 +10 (10/16 05:52 UTC)
風向・風速北 3m/s
視程10km以上
天気現象
少しの雲 雲底高度 430m
全天の4割程度の雲 雲底高度 3660m
全天の8割程度の雲 雲底高度 8530m
気温28.9℃
湿度87%
気圧1007.8hPa
METARPTKK 160552Z VRB05KT 15SM FEW014 SCT120 BKN280 29/27 A2976 RMK SHRAE12 SLP078 60008 8/171 T02890266 10322 20289 57010
過去の天気等 Google飛行場航空写真 Wunderground天気予報

過去48時間のMETAR

飛行場予報(TAF)
発表時間: 10/16 15:29 +10 (10/16 05:29 UTC)
予報対象時間: 16日16時 +10 ~ 17日16時 +10
風向・風速西北西 4m/s
視程10km以上
天気現象周辺でしゅう雨
少しの雲 雲底高度 370m
全天の4割程度の雲 雲底高度 910m
PTKK 160529Z 1606/1706 30008KT P6SM VCSH FEW012 SCT030